Time;durP1;ratioP1;P1;durP2;ratioP2;P2;SDS_P1;SDS_P2;PMS_P1;PMS_P2;Temp;Humidity;BMP_temperature;BMP_pressure;BME280_temperature;BME280_humidity;BME280_pressure;Samples;Min_cycle;Max_cycle;Signal;HPM_P1;HPM_P2
2022/08/09 00:00:53;;;;;;;14.40;8.60;;;;;;;24.52;61.32;100760.33;124754;1099;104169;-78
2022/08/09 00:03:22;;;;;;;11.97;7.80;;;;;;;24.49;61.67;100752.34;124202;1099;102775;-77
2022/08/09 00:05:51;;;;;;;12.23;7.70;;;;;;;24.46;61.77;100749.70;124235;1099;104172;-77
2022/08/09 00:08:20;;;;;;;13.20;8.10;;;;;;;24.43;62.04;100757.81;124193;1099;104297;-77
2022/08/09 00:10:48;;;;;;;14.00;7.63;;;;;;;24.40;61.71;100761.42;124226;1099;104165;-77
2022/08/09 00:13:19;;;;;;;14.77;8.10;;;;;;;24.37;61.78;100757.02;124207;1099;104242;-77
2022/08/09 00:15:48;;;;;;;13.63;8.23;;;;;;;24.34;61.93;100756.16;124286;1099;104183;-78
2022/08/09 00:18:17;;;;;;;14.27;8.30;;;;;;;24.31;62.61;100753.53;124288;1099;104166;-77
2022/08/09 00:20:46;;;;;;;14.63;8.20;;;;;;;24.26;62.22;100758.09;124736;1098;104264;-77
2022/08/09 00:23:15;;;;;;;13.40;7.87;;;;;;;24.21;62.42;100758.17;124294;1099;102628;-78
2022/08/09 00:25:44;;;;;;;13.53;8.40;;;;;;;24.18;62.39;100760.90;124275;1099;102171;-80
2022/08/09 00:28:13;;;;;;;14.47;7.97;;;;;;;24.12;62.50;100756.55;124246;1102;104169;-77
2022/08/09 00:30:42;;;;;;;15.97;9.03;;;;;;;24.10;62.94;100752.11;124262;1099;104172;-78
2022/08/09 00:33:11;;;;;;;18.33;9.33;;;;;;;24.06;62.91;100762.00;124476;1102;104593;-78
2022/08/09 00:35:41;;;;;;;16.03;8.40;;;;;;;24.03;63.04;100762.05;124771;1099;102171;-78
2022/08/09 00:38:11;;;;;;;15.07;8.27;;;;;;;24.00;63.48;100767.46;124245;1099;104205;-77
2022/08/09 00:40:40;;;;;;;15.27;8.50;;;;;;;23.96;63.31;100763.92;124716;1099;102742;-78
2022/08/09 00:43:09;;;;;;;15.20;8.60;;;;;;;23.93;63.28;100768.45;124386;1099;102255;-77
2022/08/09 00:45:37;;;;;;;14.50;8.57;;;;;;;23.92;63.48;100774.70;124217;1099;104214;-78
2022/08/09 00:48:07;;;;;;;16.13;8.60;;;;;;;23.90;64.02;100774.73;124187;1099;102976;-78
2022/08/09 00:50:36;;;;;;;15.23;9.20;;;;;;;23.86;63.53;100764.99;124307;1099;104175;-77
2022/08/09 00:53:06;;;;;;;16.53;8.67;;;;;;;23.85;63.64;100763.20;124519;1099;102341;-77
2022/08/09 00:55:35;;;;;;;14.63;8.90;;;;;;;23.83;63.63;100762.33;124679;1099;104297;-78
2022/08/09 00:58:04;;;;;;;14.87;8.70;;;;;;;23.79;64.54;100763.27;124731;1099;104232;-77
2022/08/09 01:00:33;;;;;;;14.60;7.93;;;;;;;23.74;63.83;100757.97;124505;1099;104169;-77
2022/08/09 01:03:14;;;;;;;15.63;7.90;;;;;;;23.72;64.05;100761.57;124239;1099;102335;-77
2022/08/09 01:05:51;;;;;;;15.20;8.37;;;;;;;23.68;63.79;100769.69;124246;1099;104242;-78
2022/08/09 01:08:33;;;;;;;15.90;9.07;;;;;;;23.65;64.26;100767.05;124209;1099;104152;-77
2022/08/09 01:11:14;;;;;;;16.13;8.80;;;;;;;23.62;64.68;100766.18;124225;1099;102311;-77
2022/08/09 01:13:50;;;;;;;15.37;8.43;;;;;;;23.59;64.19;100769.81;124500;1099;104297;-78
2022/08/09 01:16:21;;;;;;;14.87;8.83;;;;;;;23.56;64.76;100764.50;124257;1099;104236;-77
2022/08/09 01:18:53;;;;;;;14.63;8.07;;;;;;;23.52;64.73;100754.72;124337;1099;104281;-77
2022/08/09 01:21:45;;;;;;;15.33;8.20;;;;;;;23.51;64.87;100755.61;124261;1099;103517;-77
2022/08/09 01:24:28;;;;;;;14.83;8.50;;;;;;;23.47;65.12;100753.91;124254;1099;104217;-77
2022/08/09 01:27:02;;;;;;;16.90;8.80;;;;;;;23.47;64.73;100757.46;124276;1099;103213;-77
2022/08/09 01:29:37;;;;;;;14.50;8.53;;;;;;;23.45;64.80;100761.96;124150;1097;104260;-78
2022/08/09 01:32:08;;;;;;;17.80;8.90;;;;;;;23.42;65.63;100756.65;124232;1102;104224;-77
2022/08/09 01:34:41;;;;;;;15.10;8.67;;;;;;;23.38;65.33;100754.03;124256;1099;104201;-77
2022/08/09 01:37:12;;;;;;;16.90;9.25;;;;;;;23.35;65.66;100754.06;124203;1099;102769;-77
2022/08/09 01:39:44;;;;;;;14.40;8.53;;;;;;;23.32;65.58;100753.18;124238;1099;104245;-77
2022/08/09 01:42:15;;;;;;;15.77;8.70;;;;;;;23.29;65.43;100750.55;124202;1102;103379;-77
2022/08/09 01:44:47;;;;;;;15.10;9.00;;;;;;;23.27;66.33;100752.36;124255;1099;104244;-77
2022/08/09 01:47:17;;;;;;;17.20;8.83;;;;;;;23.25;65.96;100756.86;124226;1099;104245;-77
2022/08/09 01:49:48;;;;;;;14.83;8.83;;;;;;;23.25;65.87;100747.92;124142;1102;104650;-78
2022/08/09 01:52:19;;;;;;;14.40;8.63;;;;;;;23.24;65.47;100749.73;124264;1099;104248;-77
2022/08/09 01:54:52;;;;;;;15.73;9.00;;;;;;;23.20;66.17;100750.66;124530;1099;104230;-77
2022/08/09 01:57:26;;;;;;;17.73;8.87;;;;;;;23.17;66.36;100748.05;124719;1098;104182;-77
2022/08/09 01:59:58;;;;;;;18.43;9.20;;;;;;;23.15;66.50;100757.87;124332;1102;104229;-77
2022/08/09 02:02:31;;;;;;;15.23;8.83;;;;;;;23.13;66.43;100754.33;124250;1101;102935;-77
2022/08/09 02:05:09;;;;;;;16.37;9.17;;;;;;;23.13;66.52;100755.20;124407;1099;102149;-77
2022/08/09 02:07:44;;;;;;;14.97;8.83;;;;;;;23.12;66.73;100758.81;124261;1099;102822;-78
2022/08/09 02:10:16;;;;;;;19.33;9.23;;;;;;;23.11;66.54;100761.51;124273;1099;104344;-77
2022/08/09 02:12:47;;;;;;;17.60;8.33;;;;;;;23.09;66.52;100755.27;124274;1099;104190;-77
2022/08/09 02:15:18;;;;;;;16.43;8.80;;;;;;;23.07;66.16;100763.28;124625;1099;104201;-77
2022/08/09 02:17:52;;;;;;;19.90;9.15;;;;;;;23.02;67.14;100765.13;124794;1098;104182;-77
2022/08/09 02:20:21;;;;;;;16.77;9.33;;;;;;;22.98;67.14;100758.94;124686;1099;102206;-77
2022/08/09 02:22:55;;;;;;;17.63;9.20;;;;;;;22.98;67.39;100772.31;124759;1099;101815;-78
2022/08/09 02:25:30;;;;;;;15.57;8.77;;;;;;;22.95;67.29;100767.00;124396;1099;104316;-77
2022/08/09 02:28:05;;;;;;;14.20;8.70;;;;;;;22.92;67.37;100775.06;124143;1102;104159;-77
2022/08/09 02:30:40;;;;;;;14.37;8.63;;;;;;;22.87;67.15;100760.83;124260;1099;104220;-77
2022/08/09 02:33:13;;;;;;;14.87;8.60;;;;;;;22.84;67.11;100762.66;124300;1099;102217;-77
2022/08/09 02:35:44;;;;;;;14.63;9.43;;;;;;;22.78;67.49;100761.83;124622;1099;102794;-77
2022/08/09 02:38:17;;;;;;;14.43;9.20;;;;;;;22.74;67.26;100764.55;124722;1099;104239;-78
2022/08/09 02:40:46;;;;;;;;;;;;;;;22.71;68.44;100761.91;124732;1099;104183;-79
2022/08/09 02:43:17;;;;;;;15.40;9.47;;;;;;;22.68;67.71;100764.61;124786;1099;104204;-78
2022/08/09 02:45:48;;;;;;;16.45;8.95;;;;;;;22.66;67.53;100764.62;124255;1099;102800;-78
2022/08/09 02:48:20;;;;;;;17.03;9.10;;;;;;;22.65;67.62;100775.34;124346;1099;104220;-78
2022/08/09 02:50:53;;;;;;;16.73;9.17;;;;;;;22.60;67.91;100770.91;124320;1099;104169;-78
2022/08/09 02:53:27;;;;;;;17.85;9.23;;;;;;;22.58;67.82;100775.40;124968;1102;104293;-78
2022/08/09 02:55:59;;;;;;;18.00;10.20;;;;;;;22.54;68.35;100770.97;125485;1099;104294;-78
2022/08/09 02:58:31;;;;;;;17.17;8.83;;;;;;;22.52;68.82;100771.91;125704;1098;104066;-78
2022/08/09 03:01:01;;;;;;;18.40;9.20;;;;;;;22.50;68.76;100777.27;125171;1100;102797;-78
2022/08/09 03:03:32;;;;;;;14.30;8.90;;;;;;;22.49;68.41;100782.63;125791;1098;104166;-78
2022/08/09 03:06:02;;;;;;;14.50;9.07;;;;;;;22.48;68.82;100784.39;125183;1099;104329;-78
2022/08/09 03:08:31;;;;;;;18.37;9.97;;;;;;;22.47;68.36;100782.64;124312;1099;104187;-78
2022/08/09 03:11:02;;;;;;;14.90;8.77;;;;;;;22.48;68.23;100784.39;125020;1098;104191;-79
2022/08/09 03:13:31;;;;;;;16.57;8.90;;;;;;;22.48;69.06;100789.74;124282;1099;104335;-78
2022/08/09 03:16:01;;;;;;;16.50;9.70;;;;;;;22.52;68.23;100790.63;124883;1099;104347;-78
2022/08/09 03:18:31;;;;;;;17.40;9.03;;;;;;;22.51;68.52;100796.86;124715;1099;104367;-78
2022/08/09 03:21:02;;;;;;;19.40;9.40;;;;;;;22.50;68.56;100787.97;125687;1099;104205;-79
2022/08/09 03:23:31;;;;;;;18.77;9.70;;;;;;;22.46;68.94;100786.20;124913;1099;104207;-78
2022/08/09 03:26:00;;;;;;;20.27;10.23;;;;;;;22.41;68.89;100782.70;124687;1101;104223;-78
2022/08/09 03:28:32;;;;;;;21.57;9.23;;;;;;;22.38;68.78;100778.25;124308;1102;102932;-78
2022/08/09 03:31:01;;;;;;;18.17;10.40;;;;;;;22.34;68.75;100778.29;124261;1102;104181;-78
2022/08/09 03:33:31;;;;;;;16.83;9.90;;;;;;;22.31;69.21;100786.33;124278;1102;104241;-78
2022/08/09 03:36:01;;;;;;;16.50;9.97;;;;;;;22.28;69.53;100781.85;124776;1099;104201;-78
2022/08/09 03:38:29;;;;;;;19.03;10.43;;;;;;;22.28;69.59;100786.33;125275;1099;101903;-78
2022/08/09 03:40:59;;;;;;;19.23;10.07;;;;;;;22.23;69.50;100786.36;125781;1099;102796;-78
2022/08/09 03:43:28;;;;;;;19.00;10.17;;;;;;;22.21;69.24;100781.02;125728;1099;104315;-78
2022/08/09 03:45:57;;;;;;;19.00;10.43;;;;;;;22.21;69.47;100790.84;124705;1099;104201;-78
2022/08/09 03:48:27;;;;;;;17.40;10.40;;;;;;;22.22;69.44;100793.50;124271;1099;104175;-78
2022/08/09 03:50:57;;;;;;;18.90;10.53;;;;;;;22.21;70.26;100786.37;124306;1099;104194;-78
2022/08/09 03:53:28;;;;;;;21.10;11.10;;;;;;;22.20;70.16;100779.23;124269;1100;104188;-79
2022/08/09 03:55:59;;;;;;;22.07;11.33;;;;;;;22.21;69.79;100786.37;124283;1102;104230;-79
2022/08/09 03:58:36;;;;;;;16.10;10.13;;;;;;;22.21;70.10;100783.70;124796;1099;103289;-79
2022/08/09 04:01:06;;;;;;;20.57;10.70;;;;;;;22.23;69.58;100783.69;125632;1099;102187;-79
2022/08/09 04:03:37;;;;;;;18.93;10.70;;;;;;;22.25;70.13;100774.77;125728;1099;102954;-79
2022/08/09 04:06:06;;;;;;;18.70;10.47;;;;;;;22.24;69.63;100770.31;125546;1099;104287;-79
2022/08/09 04:08:35;;;;;;;19.23;10.97;;;;;;;22.26;69.57;100770.30;124951;1099;104348;-78
2022/08/09 04:11:04;;;;;;;20.00;10.83;;;;;;;22.29;69.80;100770.27;124325;1099;103248;-78
2022/08/09 04:13:33;;;;;;;21.83;11.10;;;;;;;22.34;70.28;100772.94;125032;1099;104181;-78
2022/08/09 04:16:04;;;;;;;19.57;11.10;;;;;;;22.37;69.96;100770.24;124975;1102;102899;-80
2022/08/09 04:18:33;;;;;;;21.13;11.27;;;;;;;22.40;69.69;100771.09;125088;1102;104175;-79
2022/08/09 04:21:02;;;;;;;18.33;10.70;;;;;;;22.43;69.75;100778.21;125673;1099;102768;-79
2022/08/09 04:23:31;;;;;;;19.47;11.73;;;;;;;22.43;70.06;100788.91;124974;1099;102279;-79
2022/08/09 04:26:00;;;;;;;19.60;11.60;;;;;;;22.44;70.35;100793.36;125739;1099;104175;-79
2022/08/09 04:28:29;;;;;;;23.10;11.80;;;;;;;22.47;70.27;100785.31;124985;1099;102078;-78
2022/08/09 04:30:58;;;;;;;19.20;11.43;;;;;;;22.50;70.26;100795.98;125000;1099;103459;-78
2022/08/09 04:33:27;;;;;;;21.03;11.33;;;;;;;22.52;70.64;100802.20;124267;1099;104158;-78
2022/08/09 04:35:56;;;;;;;18.03;10.57;;;;;;;22.54;70.43;100799.51;124376;1099;104217;-79
2022/08/09 04:38:25;;;;;;;18.60;11.40;;;;;;;22.59;70.77;100803.02;124277;1099;104089;-78
2022/08/09 04:40:54;;;;;;;19.60;12.05;;;;;;;22.59;69.73;100803.92;124448;1099;104162;-78
2022/08/09 04:43:23;;;;;;;21.53;11.00;;;;;;;22.64;69.97;100790.52;124832;1099;102172;-78
2022/08/09 04:45:52;;;;;;;17.93;10.97;;;;;;;22.67;70.33;100793.13;125513;1099;104160;-78
2022/08/09 04:48:21;;;;;;;19.77;11.47;;;;;;;22.69;70.51;100790.44;126045;1098;102911;-78
2022/08/09 04:50:58;;;;;;;20.47;10.73;;;;;;;22.74;69.84;100789.50;124974;1099;102204;-78
2022/08/09 04:53:27;;;;;;;19.17;11.80;;;;;;;22.79;70.77;100800.16;125002;1102;104242;-78
2022/08/09 04:56:06;;;;;;;17.90;10.17;;;;;;;22.80;70.42;100804.61;124991;1099;103124;-78
2022/08/09 04:58:35;;;;;;;18.93;11.03;;;;;;;22.84;70.45;100802.78;124922;1099;104054;-79
2022/08/09 05:01:04;;;;;;;19.33;11.20;;;;;;;22.86;70.50;100806.32;124965;1102;104325;-78
2022/08/09 05:03:34;;;;;;;18.43;11.00;;;;;;;22.86;70.09;100795.63;124314;1102;104382;-78
2022/08/09 05:06:05;;;;;;;19.63;11.43;;;;;;;22.93;70.76;100800.02;124265;1102;104220;-78
2022/08/09 05:08:35;;;;;;;20.63;11.23;;;;;;;23.01;70.65;100806.16;124258;1102;104355;-78
2022/08/09 05:11:04;;;;;;;19.43;11.30;;;;;;;23.06;70.65;100800.77;124203;1102;104528;-77
2022/08/09 05:13:36;;;;;;;22.07;11.60;;;;;;;23.14;70.30;100798.94;124271;1102;104207;-78
2022/08/09 05:16:07;;;;;;;19.60;11.30;;;;;;;23.16;70.45;100797.13;124244;1102;103317;-78
2022/08/09 05:18:35;;;;;;;20.27;12.13;;;;;;;23.19;70.31;100801.53;124604;1102;104224;-78
2022/08/09 05:21:07;;;;;;;19.70;11.60;;;;;;;23.19;70.47;100794.41;124314;1102;104348;-79
2022/08/09 05:23:36;;;;;;;17.30;10.57;;;;;;;23.25;70.03;100799.70;124399;1102;104086;-78
2022/08/09 05:26:16;;;;;;;18.27;10.87;;;;;;;23.26;69.88;100801.45;124362;1102;102852;-78
2022/08/09 05:28:46;;;;;;;21.00;12.27;;;;;;;23.31;70.46;100807.66;124284;1102;104222;-78
2022/08/09 05:31:15;;;;;;;22.37;11.60;;;;;;;23.33;70.38;100808.52;125461;1102;102164;-78
2022/08/09 05:33:57;;;;;;;19.83;11.03;;;;;;;23.39;70.00;100803.98;124416;1099;104169;-78
2022/08/09 05:36:27;;;;;;;21.07;10.90;;;;;;;23.41;69.84;100804.86;124939;1099;104172;-78
2022/08/09 05:38:58;;;;;;;20.50;10.93;;;;;;;23.41;69.99;100803.06;124285;1099;104162;-78
2022/08/09 05:41:27;;;;;;;20.53;11.07;;;;;;;23.50;70.03;100810.98;124925;1101;102851;-78
2022/08/09 05:44:18;;;;;;;18.63;11.33;;;;;;;23.58;69.81;100821.59;124937;1099;104207;-78
2022/08/09 05:46:49;;;;;;;19.97;11.13;;;;;;;23.62;69.54;100804.59;124973;1099;104175;-77
2022/08/09 05:49:22;;;;;;;19.65;10.70;;;;;;;23.64;69.64;100809.92;124455;1099;104245;-77
2022/08/09 05:52:03;;;;;;;23.52;12.30;;;;;;;23.71;69.47;100813.40;124329;1099;104235;-79
2022/08/09 05:54:47;;;;;;;20.67;11.73;;;;;;;23.75;69.45;100816.02;127323;1098;101969;-80
2022/08/09 05:57:30;;;;;;;21.07;11.47;;;;;;;23.79;69.58;100819.53;125041;1099;104217;-79
2022/08/09 06:00:09;;;;;;;20.60;11.40;;;;;;;23.82;69.38;100817.69;124987;1099;104297;-78
2022/08/09 06:03:10;;;;;;;;;;;;;;;;;;;;;
2022/08/09 06:08:46;;;;;;;22.60;11.53;;;;;;;24.00;69.10;100821.94;125695;1102;102493;-80
2022/08/09 06:11:23;;;;;;;19.17;11.53;;;;;;;24.01;68.93;100821.05;125678;1102;102216;-81
2022/08/09 06:13:55;;;;;;;19.17;11.47;;;;;;;24.08;68.72;100820.95;124999;1102;104303;-80
2022/08/09 06:16:54;;;;;;;;;;;;;;;;;;;;;
2022/08/09 06:19:38;;;;;;;19.20;11.20;;;;;;;24.24;68.27;100819.79;125127;1102;104115;-80
2022/08/09 06:22:32;;;;;;;;;;;;;;;;;;;;;
2022/08/09 06:28:50;;;;;;;19.17;11.17;;;;;;;24.62;67.87;100815.64;125178;1105;104221;-81
2022/08/09 06:32:05;;;;;;;20.50;11.03;;;;;;;24.79;68.15;100806.37;124823;1105;102284;-81
2022/08/09 06:35:03;;;;;;;17.50;10.30;;;;;;;24.99;67.41;100806.88;124968;1106;102582;-80
2022/08/09 06:37:54;;;;;;;19.87;10.27;;;;;;;25.04;67.00;100822.91;124814;1105;102332;-78
2022/08/09 06:40:48;;;;;;;19.70;10.90;;;;;;;25.05;66.81;100819.31;124808;1105;102541;-80
2022/08/09 06:43:26;;;;;;;19.60;10.93;;;;;;;25.16;66.75;100806.56;124830;1105;104342;-80
2022/08/09 06:46:02;;;;;;;19.53;11.17;;;;;;;25.32;66.94;100815.22;124836;1106;104220;-81
2022/08/09 06:48:43;;;;;;;19.13;10.63;;;;;;;25.45;66.01;100811.38;125019;1102;104169;-81
2022/08/09 06:51:16;;;;;;;19.90;10.50;;;;;;;25.58;65.68;100808.42;124874;1102;104171;-80
2022/08/09 06:54:00;;;;;;;19.17;10.70;;;;;;;25.70;65.67;100808.16;124840;1104;101812;-79
2022/08/09 06:57:08;;;;;;;20.37;10.57;;;;;;;25.89;65.79;100810.44;124856;1102;104375;-79
2022/08/09 06:59:49;;;;;;;17.87;10.10;;;;;;;26.07;64.84;100801.98;124964;1099;103578;-80
2022/08/09 07:02:44;;;;;;;;;;;;;;;;;;;;;
2022/08/09 07:05:56;;;;;;;19.87;10.80;;;;;;;26.26;64.06;100812.30;125182;1100;102246;-80
2022/08/09 07:08:55;;;;;;;17.07;10.17;;;;;;;26.29;64.56;100806.84;126229;1099;102095;-79
2022/08/09 07:12:28;;;;;;;;;;;;;;;;;;;;;
2022/08/09 07:15:31;;;;;;;20.33;11.27;;;;;;;26.49;63.59;100819.77;125856;1098;104332;-81
2022/08/09 07:18:32;;;;;;;21.87;10.00;;;;;;;26.55;63.27;100817.83;125902;1098;102171;-82
2022/08/09 07:21:42;;;;;;;;;;;;;;;;;;;;;
2022/08/09 07:25:11;;;;;;;18.13;10.80;;;;;;;26.80;62.57;100811.84;126024;1102;101793;-81
2022/08/09 07:28:02;;;;;;;18.43;10.10;;;;;;;26.97;62.11;100803.27;126187;1102;103253;-82
2022/08/09 07:31:14;;;;;;;17.47;10.57;;;;;;;27.21;61.77;100808.92;126100;1102;101711;-82
2022/08/09 07:34:04;;;;;;;17.37;9.87;;;;;;;27.41;60.41;100802.96;125525;1102;102411;-78
2022/08/09 07:37:10;;;;;;;17.23;9.83;;;;;;;27.67;60.67;100798.61;125588;1105;101913;-79
2022/08/09 07:40:09;;;;;;;19.10;9.80;;;;;;;27.78;60.28;100799.16;125411;1102;102793;-78
2022/08/09 07:43:20;;;;;;;17.30;9.40;;;;;;;28.00;60.13;100795.82;124837;1105;119796;-79
2022/08/09 07:46:10;;;;;;;16.43;10.07;;;;;;;28.24;60.19;100800.42;125056;1102;102807;-78
2022/08/09 07:49:04;;;;;;;16.23;9.63;;;;;;;28.41;59.08;100793.59;125508;1102;102181;-79
2022/08/09 07:52:26;;;;;;;;;;;;;;;;;;;;;
2022/08/09 07:55:30;;;;;;;16.73;9.80;;;;;;;28.94;56.91;100801.66;126140;1098;104179;-78
2022/08/09 07:58:39;;;;;;;18.03;9.47;;;;;;;29.11;56.55;100790.23;125038;1099;102221;-80
2022/08/09 08:05:55;;;;;;;;;;;;;;;;;;;;;
2022/08/09 08:14:36;;;;;;;16.37;9.67;;;;;;;29.86;54.14;100778.39;124954;1102;102072;-79
2022/08/09 08:17:19;;;;;;;15.53;9.17;;;;;;;29.96;53.79;100778.89;125559;1102;102014;-78
2022/08/09 08:20:03;;;;;;;17.20;9.87;;;;;;;30.05;53.10;100783.93;125559;1102;102230;-79
2022/08/09 08:22:58;;;;;;;17.87;9.50;;;;;;;30.19;52.72;100790.61;125303;1102;102163;-79
2022/08/09 08:25:57;;;;;;;16.20;8.77;;;;;;;30.29;52.89;100779.34;125551;1102;102039;-79
2022/08/09 08:28:42;;;;;;;16.23;9.00;;;;;;;30.35;52.55;100774.59;124944;1102;104351;-79
2022/08/09 08:31:24;;;;;;;15.40;9.40;;;;;;;30.46;52.30;100773.24;124987;1102;101859;-79
2022/08/09 08:34:06;;;;;;;18.07;8.50;;;;;;;30.59;51.78;100778.09;124999;1102;104160;-79
2022/08/09 08:36:53;;;;;;;12.98;8.53;;;;;;;30.50;50.65;100767.69;125500;1105;101799;-79
2022/08/09 08:39:48;;;;;;;;;;;;;;;;;;;;;
2022/08/09 08:42:54;;;;;;;13.67;8.50;;;;;;;30.41;49.71;100769.83;125362;1102;102794;-80
2022/08/09 08:46:08;;;;;;;;;;;;;;;;;;;;;
2022/08/09 08:49:04;;;;;;;13.17;7.93;;;;;;;30.54;49.51;100766.59;124953;1105;102242;-80
2022/08/09 08:52:15;;;;;;;12.73;8.07;;;;;;;30.52;48.98;100765.79;124838;1105;104374;-80
2022/08/09 08:54:53;;;;;;;13.20;8.10;;;;;;;30.49;48.68;100769.50;124844;1105;103504;-80
2022/08/09 08:57:56;;;;;;;12.30;7.90;;;;;;;30.51;48.37;100767.62;124693;1105;103409;-80
2022/08/09 09:00:35;;;;;;;10.17;6.80;;;;;;;30.53;48.92;100762.14;124729;1106;104443;-79
2022/08/09 09:03:38;;;;;;;10.93;6.40;;;;;;;30.53;48.23;100757.59;124781;1105;104668;-79
2022/08/09 09:06:34;;;;;;;10.93;6.33;;;;;;;30.57;47.86;100763.75;124899;1105;102239;-80
2022/08/09 09:09:54;;;;;;;10.50;5.70;;;;;;;30.68;47.29;100750.61;124805;1106;104216;-79
2022/08/09 09:12:36;;;;;;;12.60;5.80;;;;;;;30.75;46.56;100746.69;124823;1105;103435;-78
2022/08/09 09:15:24;;;;;;;12.03;5.60;;;;;;;30.74;45.82;100753.05;124931;1104;104245;-79
2022/08/09 09:18:30;;;;;;;6.63;5.00;;;;;;;30.76;45.54;100759.30;125661;1102;103317;-79
2022/08/09 09:21:13;;;;;;;9.47;5.33;;;;;;;30.75;44.43;100746.69;125793;1102;101984;-79
2022/08/09 09:23:57;;;;;;;;;;;;;;;;;;;;;
2022/08/09 09:26:33;;;;;;;9.23;5.73;;;;;;;30.92;44.76;100745.94;125694;1102;104424;-78
2022/08/09 09:29:34;;;;;;;10.33;5.33;;;;;;;30.79;44.26;100747.42;127121;1098;101628;-79
2022/08/09 09:32:59;;;;;;;9.43;5.30;;;;;;;30.77;44.36;100742.08;125664;1099;104165;-81
2022/08/09 09:36:02;;;;;;;9.37;5.50;;;;;;;30.85;44.15;100743.58;125498;1101;111567;-80
2022/08/09 09:38:55;;;;;;;9.13;5.40;;;;;;;30.88;43.95;100727.18;124967;1102;102745;-80
2022/08/09 09:42:04;;;;;;;8.40;5.40;;;;;;;30.90;43.28;100733.40;124998;1102;102365;-79
2022/08/09 09:44:34;;;;;;;9.20;5.30;;;;;;;30.95;43.54;100728.67;124625;1105;104124;-78
2022/08/09 09:50:21;;;;;;;7.40;5.20;;;;;;;31.10;43.15;100730.67;124777;1102;102541;-78
2022/08/09 09:53:09;;;;;;;;;;;;;;;;;;;;;
2022/08/09 09:56:40;;;;;;;13.87;5.40;;;;;;;31.17;42.49;100732.16;125959;1102;118571;-78
2022/08/09 09:59:13;;;;;;;9.10;5.20;;;;;;;31.17;42.63;100726.74;124986;1102;104461;-79
2022/08/09 10:01:58;;;;;;;7.40;4.80;;;;;;;31.21;42.61;100724.76;126007;1102;101915;-79
2022/08/09 10:04:33;;;;;;;7.47;4.87;;;;;;;31.26;42.36;100727.25;125632;1099;103208;-79
2022/08/09 10:07:20;;;;;;;9.20;4.50;;;;;;;31.31;42.22;100717.09;125061;1102;102944;-79
2022/08/09 10:09:57;;;;;;;7.60;4.70;;;;;;;31.42;42.17;100713.88;124992;1100;102464;-78
2022/08/09 10:12:29;;;;;;;5.27;3.93;;;;;;;31.49;41.89;100718.93;124372;1102;103395;-79
2022/08/09 10:15:14;;;;;;;5.93;4.30;;;;;;;31.45;41.97;100724.57;124481;1100;104230;-78
2022/08/09 10:17:48;;;;;;;8.70;4.23;;;;;;;31.33;41.05;100721.47;125667;1099;102740;-78
2022/08/09 10:20:26;;;;;;;7.23;4.40;;;;;;;31.30;41.27;100720.75;125171;1100;104310;-77
2022/08/09 10:22:59;;;;;;;13.60;5.07;;;;;;;31.26;40.76;100708.28;125684;1098;103422;-77
2022/08/09 10:25:34;;;;;;;8.60;4.33;;;;;;;31.23;40.57;100706.61;125032;1099;102319;-77
2022/08/09 10:28:06;;;;;;;8.48;4.30;;;;;;;31.24;40.89;100715.61;125028;1099;104163;-77
2022/08/09 10:30:35;;;;;;;9.60;4.50;;;;;;;31.24;40.35;100713.77;124403;1099;104165;-77
2022/08/09 10:33:06;;;;;;;9.43;4.40;;;;;;;31.35;40.45;100703.32;124604;1102;104398;-77
2022/08/09 10:35:38;;;;;;;9.23;4.37;;;;;;;31.43;40.32;100705.66;125504;1102;101967;-77
2022/08/09 10:38:08;;;;;;;6.43;4.17;;;;;;;31.48;40.24;100703.60;124900;1099;104287;-78
2022/08/09 10:40:49;;;;;;;6.03;3.80;;;;;;;31.60;40.10;100706.69;125614;1099;104165;-78
2022/08/09 10:43:43;;;;;;;8.93;4.13;;;;;;;31.64;39.86;100706.47;125133;1102;104157;-79
2022/08/09 10:46:53;;;;;;;8.63;4.10;;;;;;;31.79;39.54;100706.66;125375;1099;104248;-79
2022/08/09 10:49:52;;;;;;;9.47;3.90;;;;;;;31.96;39.87;100692.24;125073;1099;104197;-78
2022/08/09 10:52:49;;;;;;;10.10;4.53;;;;;;;32.05;39.53;100691.78;125728;1099;104303;-77
2022/08/09 10:55:32;;;;;;;5.97;4.23;;;;;;;32.11;39.16;100693.34;125133;1102;104207;-77
2022/08/09 10:58:28;;;;;;;6.73;4.00;;;;;;;32.10;38.87;100692.48;125006;1099;111579;-76
2022/08/09 11:01:39;;;;;;;5.80;3.87;;;;;;;32.19;38.75;100691.10;125619;1099;104359;-78
2022/08/09 11:04:26;;;;;;;6.80;4.00;;;;;;;32.20;38.19;100688.31;124956;1099;103297;-76
2022/08/09 11:07:30;;;;;;;9.70;4.20;;;;;;;32.10;38.18;100688.86;125604;1098;102947;-77
2022/08/09 11:10:05;;;;;;;8.65;3.98;;;;;;;31.96;38.08;100673.25;124387;1099;104229;-80
2022/08/09 11:12:44;;;;;;;7.17;4.30;;;;;;;31.83;37.94;100679.30;125553;1099;102674;-78
2022/08/09 11:15:39;;;;;;;9.60;4.10;;;;;;;31.74;37.73;100676.17;125168;1099;102494;-78
2022/08/09 11:18:31;;;;;;;;;;;;;;;31.83;36.56;100676.58;125483;1099;104216;-78
2022/08/09 11:21:02;;;;;;;8.60;3.90;;;;;;;31.85;37.07;100674.70;124471;1102;104328;-79
2022/08/09 11:23:59;;;;;;;;;;;;;;;31.78;36.14;100669.66;125195;1100;104290;-78
2022/08/09 11:26:43;;;;;;;7.40;3.83;;;;;;;31.74;36.83;100677.05;125662;1099;104239;-79
2022/08/09 11:29:57;;;;;;;9.00;3.83;;;;;;;31.72;37.22;100673.54;125589;1099;104261;-79
2022/08/09 11:32:57;;;;;;;4.87;3.90;;;;;;;31.66;37.23;100668.42;125492;1102;104866;-80
2022/08/09 11:35:40;;;;;;;10.43;4.13;;;;;;;31.64;37.54;100662.20;125007;1099;104325;-78
2022/08/09 11:38:43;;;;;;;7.50;4.20;;;;;;;31.68;37.39;100661.97;125010;1099;104172;-79
2022/08/09 11:41:32;;;;;;;6.57;4.00;;;;;;;31.85;36.53;100665.66;125198;1099;104245;-79
2022/08/09 11:44:06;;;;;;;8.27;4.10;;;;;;;32.04;36.97;100650.20;125790;1099;104185;-79
2022/08/09 11:47:07;;;;;;;;;;;;;;;;;;;;;
2022/08/09 11:50:13;;;;;;;6.93;4.40;;;;;;;32.36;36.41;100636.79;125093;1099;107721;-79
2022/08/09 11:53:26;;;;;;;9.57;3.97;;;;;;;32.42;35.36;100638.31;125116;1099;104160;-81
2022/08/09 12:00:19;;;;;;;6.67;3.83;;;;;;;32.73;35.89;100633.97;126663;1098;104294;-80
2022/08/09 12:03:20;;;;;;;7.83;4.20;;;;;;;32.75;35.99;100632.91;125857;1098;101871;-80
2022/08/09 12:06:15;;;;;;;8.90;4.17;;;;;;;32.72;35.53;100621.34;125666;1099;102264;-81
2022/08/09 12:08:58;;;;;;;9.50;4.20;;;;;;;32.73;35.89;100623.97;125087;1102;104295;-80
2022/08/09 12:12:21;;;;;;;7.97;4.23;;;;;;;32.75;35.30;100622.03;125183;1102;110801;-80
2022/08/09 12:15:26;;;;;;;9.23;3.97;;;;;;;32.90;35.06;100624.89;125427;1102;104258;-80
2022/08/09 12:18:09;;;;;;;10.90;4.43;;;;;;;33.11;35.21;100620.06;125118;1102;104201;-79
2022/08/09 12:20:47;;;;;;;10.03;4.30;;;;;;;33.37;35.24;100618.60;125075;1102;104547;-81
2022/08/09 12:24:31;;;;;;;6.20;3.90;;;;;;;33.63;35.00;100613.50;124908;1102;104395;-80
2022/08/09 12:27:45;;;;;;;7.33;4.07;;;;;;;33.81;34.78;100612.41;124490;1106;102273;-79
2022/08/09 12:30:47;;;;;;;;;;;;;;;;;;;;;
2022/08/09 12:37:19;;;;;;;6.80;4.10;;;;;;;33.60;34.14;100608.23;124469;1106;104380;-80
2022/08/09 12:40:17;;;;;;;8.27;4.10;;;;;;;33.46;34.18;100609.91;124544;1105;104430;-80
2022/08/09 12:43:04;;;;;;;6.53;3.97;;;;;;;33.31;34.33;100603.51;124655;1105;112742;-79
2022/08/09 12:45:40;;;;;;;5.67;4.20;;;;;;;33.29;34.67;100601.87;124649;1105;102427;-79
2022/08/09 12:49:11;;;;;;;6.10;4.10;;;;;;;33.18;34.80;100594.33;125453;1105;104234;-81
2022/08/09 12:51:58;;;;;;;5.03;4.00;;;;;;;33.08;34.62;100599.39;124700;1105;104191;-80
2022/08/09 12:54:54;;;;;;;7.43;4.30;;;;;;;33.19;34.62;100590.63;124845;1105;102821;-79